createdAt,value
2018-07-04T00:00:45.135Z,588.4
2018-07-04T00:01:46.764Z,588.5
2018-07-04T00:02:49.207Z,588.1
2018-07-04T00:03:51.395Z,588.5
2018-07-04T00:04:53.844Z,588.7
2018-07-04T00:05:56.033Z,588.9
2018-07-04T00:06:57.957Z,589
2018-07-04T00:08:00.414Z,589.2
2018-07-04T00:09:02.859Z,589.5
2018-07-04T00:10:05.045Z,589.8
2018-07-04T00:11:07.513Z,589.9
2018-07-04T00:12:09.708Z,589.7
2018-07-04T00:13:12.170Z,590
2018-07-04T00:14:14.609Z,589.7
2018-07-04T00:15:16.217Z,589.4
2018-07-04T00:16:18.659Z,589.8
2018-07-04T00:17:20.575Z,589.9
2018-07-04T00:18:22.756Z,590
2018-07-04T00:19:25.273Z,590
2018-07-04T00:20:27.730Z,590.1
2018-07-04T00:21:29.941Z,590.3
2018-07-04T00:22:32.113Z,590.2
2018-07-04T00:23:34.020Z,590.5
2018-07-04T00:24:36.468Z,590
2018-07-04T00:25:38.767Z,590.3
2018-07-04T00:26:41.024Z,590.6
2018-07-04T00:27:43.211Z,590.2
2018-07-04T00:28:45.094Z,590.2
2018-07-04T00:29:47.545Z,590.3
2018-07-04T00:30:49.739Z,589.8
2018-07-04T00:31:51.919Z,590
2018-07-04T00:32:54.081Z,590.3
2018-07-04T00:33:56.249Z,590.3
2018-07-04T00:34:58.427Z,590.5
2018-07-04T00:36:00.080Z,590.4
2018-07-04T00:37:01.986Z,590.4
2018-07-04T00:38:04.158Z,591.1
2018-07-04T00:39:06.613Z,590.7
2018-07-04T00:40:08.787Z,591.2
2018-07-04T00:41:10.973Z,590.9
2018-07-04T00:42:13.128Z,591
2018-07-04T00:43:15.303Z,591
2018-07-04T00:44:17.186Z,590.7
2018-07-04T00:45:19.353Z,590.7
2018-07-04T00:46:21.281Z,590.9
2018-07-04T00:47:23.462Z,590.8
2018-07-04T00:48:25.924Z,591
2018-07-04T00:49:28.086Z,590.7
2018-07-04T00:50:30.265Z,590.7
2018-07-04T00:51:32.152Z,590.4
2018-07-04T00:52:34.056Z,591
2018-07-04T00:53:36.520Z,590.6
2018-07-04T00:54:38.980Z,590.6
2018-07-04T00:55:41.178Z,590.6
2018-07-04T00:56:43.634Z,590.8
2018-07-04T00:57:46.072Z,590.8
2018-07-04T00:58:48.530Z,590.6
2018-07-04T00:59:50.970Z,590.7
2018-07-04T01:00:52.860Z,590.5
2018-07-04T01:01:55.307Z,590.2
2018-07-04T01:02:57.754Z,590.7
2018-07-04T01:03:59.379Z,590.7
2018-07-04T01:05:01.825Z,590.6
2018-07-04T01:06:04.008Z,590.3
2018-07-04T01:07:06.168Z,590.3
2018-07-04T01:08:08.337Z,590.3
2018-07-04T01:09:10.271Z,590.2
2018-07-04T01:10:12.708Z,590.6
2018-07-04T01:11:15.159Z,590.6
2018-07-04T01:12:17.327Z,590.4
2018-07-04T01:13:19.518Z,590.3
2018-07-04T01:14:21.974Z,591
2018-07-04T01:15:23.862Z,590.9
2018-07-04T01:16:26.308Z,591.2
2018-07-04T01:17:28.493Z,591.2
2018-07-04T01:18:30.667Z,591.3
2018-07-04T01:19:33.112Z,591.3
2018-07-04T01:20:35.567Z,591.4
2018-07-04T01:21:37.465Z,591.4
2018-07-04T01:22:39.387Z,591.3
2018-07-04T01:23:41.537Z,591.4
2018-07-04T01:24:43.440Z,591.6
2018-07-04T01:25:45.050Z,591.3
2018-07-04T01:26:47.490Z,592
2018-07-04T01:27:49.666Z,592.1
2018-07-04T01:28:52.117Z,591.8
2018-07-04T01:29:54.303Z,591.7
2018-07-04T01:30:56.215Z,591.5
2018-07-04T01:31:58.667Z,591.8
2018-07-04T01:33:01.125Z,592
2018-07-04T01:34:03.584Z,591.8
2018-07-04T01:35:06.036Z,591.9
2018-07-04T01:36:07.669Z,591.6
2018-07-04T01:37:10.125Z,591.9
2018-07-04T01:38:12.309Z,591.8
2018-07-04T01:39:14.743Z,592.2
2018-07-04T01:40:16.357Z,592.5
2018-07-04T01:41:18.280Z,592.6
2018-07-04T01:42:20.451Z,592.5
2018-07-04T01:43:22.625Z,592.6
2018-07-04T01:44:25.077Z,592.3
2018-07-04T01:45:26.981Z,592.9
2018-07-04T01:46:29.426Z,592.6
2018-07-04T01:47:31.608Z,592.5
2018-07-04T01:48:34.072Z,592.9
2018-07-04T01:49:35.966Z,592.4
2018-07-04T01:50:38.407Z,592.5
2018-07-04T01:51:40.589Z,592.5
2018-07-04T01:52:42.808Z,592.6
2018-07-04T01:53:45.284Z,592.6
2018-07-04T01:54:47.756Z,593
2018-07-04T01:55:49.940Z,592.9
2018-07-04T01:56:51.837Z,593
2018-07-04T01:57:54.287Z,593.2
2018-07-04T01:58:56.470Z,592.9
2018-07-04T01:59:58.664Z,593.4
2018-07-04T02:01:00.837Z,593.3
2018-07-04T02:02:03.320Z,593.2
2018-07-04T02:03:05.758Z,593.2
2018-07-04T02:04:07.948Z,593.3
2018-07-04T02:05:10.407Z,593.4
2018-07-04T02:06:12.861Z,593.5
2018-07-04T02:07:15.303Z,592.8
2018-07-04T02:08:17.754Z,593.3
2018-07-04T02:09:19.935Z,593.4
2018-07-04T02:10:21.591Z,592.8
2018-07-04T02:11:23.767Z,592.6
2018-07-04T02:12:25.374Z,592.7
2018-07-04T02:13:27.836Z,592.3
2018-07-04T02:14:29.758Z,591.9
2018-07-04T02:15:31.929Z,592
2018-07-04T02:16:34.383Z,591.9
2018-07-04T02:17:36.827Z,592
2018-07-04T02:18:39.010Z,592.6
2018-07-04T02:19:40.889Z,592.4
2018-07-04T02:20:42.509Z,592.5
2018-07-04T02:21:44.956Z,592.7
2018-07-04T02:22:47.117Z,593.1
2018-07-04T02:23:49.564Z,593.1
2018-07-04T02:24:51.750Z,593.1
2018-07-04T02:25:54.211Z,592.9
2018-07-04T02:26:56.382Z,592.8
2018-07-04T02:27:58.838Z,592.6
2018-07-04T02:29:01.288Z,592.5
2018-07-04T02:30:03.741Z,592.7
2018-07-04T02:31:05.631Z,592.2
2018-07-04T02:32:07.808Z,592.1
2018-07-04T02:33:09.987Z,592.4
2018-07-04T02:34:12.438Z,592.5
2018-07-04T02:35:14.089Z,592.5
2018-07-04T02:36:16.535Z,591.9
2018-07-04T02:37:18.706Z,592.1
2018-07-04T02:38:20.649Z,592.1
2018-07-04T02:39:22.846Z,591.8
2018-07-04T02:40:25.303Z,591.6
2018-07-04T02:41:27.469Z,591.7
2018-07-04T02:42:29.392Z,592
2018-07-04T02:43:31.833Z,591.5
2018-07-04T02:44:33.997Z,591.6
2018-07-04T02:45:36.444Z,591.5
2018-07-04T02:46:38.619Z,591.4
2018-07-04T02:47:41.071Z,591
2018-07-04T02:48:43.517Z,591.6
2018-07-04T02:49:45.968Z,591.3
2018-07-04T02:50:48.109Z,591.4
2018-07-04T02:51:49.735Z,591.3
2018-07-04T02:52:51.932Z,591
2018-07-04T02:53:54.096Z,591.4
2018-07-04T02:54:56.277Z,591
2018-07-04T02:55:58.470Z,591.3
2018-07-04T02:57:00.915Z,591.6
2018-07-04T02:58:03.118Z,591.6
2018-07-04T02:59:05.018Z,591.2
2018-07-04T03:00:06.927Z,591.2
2018-07-04T03:01:08.879Z,591.2
2018-07-04T03:02:11.346Z,590.8
2018-07-04T03:03:13.519Z,590.5
2018-07-04T03:04:15.964Z,590.8
2018-07-04T03:05:18.410Z,590.8
2018-07-04T03:06:20.589Z,591
2018-07-04T03:07:22.773Z,590.7
2018-07-04T03:08:24.944Z,590.8
2018-07-04T03:09:27.426Z,591.4
2018-07-04T03:10:29.048Z,591.4
2018-07-04T03:11:30.659Z,591.1
2018-07-04T03:12:32.284Z,591.2
2018-07-04T03:13:34.458Z,591.5
2018-07-04T03:14:36.644Z,591.3
2018-07-04T03:15:39.089Z,591.4
2018-07-04T03:16:41.532Z,591.2
2018-07-04T03:17:42.900Z,591.5
2018-07-04T03:18:45.352Z,591.7
2018-07-04T03:19:47.808Z,591.7
2018-07-04T03:20:50.267Z,591.7
2018-07-04T03:21:52.448Z,592
2018-07-04T03:22:54.630Z,591.9
2018-07-04T03:23:56.514Z,592.3
2018-07-04T03:24:58.969Z,592.3
2018-07-04T03:26:00.888Z,592.2
2018-07-04T03:27:03.056Z,592.5
2018-07-04T03:28:05.241Z,592.4
2018-07-04T03:29:07.694Z,592.3
2018-07-04T03:30:10.153Z,592.6
2018-07-04T03:31:12.052Z,592.6
2018-07-04T03:32:14.559Z,592.6
2018-07-04T03:33:16.994Z,592.6
2018-07-04T03:34:19.461Z,592.4
2018-07-04T03:35:21.337Z,592.3
2018-07-04T03:36:23.215Z,592.4
2018-07-04T03:37:25.395Z,592.5
2018-07-04T03:38:26.998Z,592.3
2018-07-04T03:39:28.903Z,592.9
2018-07-04T03:40:31.346Z,592.3
2018-07-04T03:41:33.237Z,592.4
2018-07-04T03:42:35.686Z,592
2018-07-04T03:43:37.871Z,592
2018-07-04T03:44:40.061Z,592.1
2018-07-04T03:45:41.955Z,592.2
2018-07-04T03:46:43.848Z,591.9
2018-07-04T03:47:46.047Z,591.9
2018-07-04T03:48:48.223Z,592.2
2018-07-04T03:49:49.947Z,591.8
2018-07-04T03:50:52.119Z,592.3
2018-07-04T03:51:53.730Z,592.2
2018-07-04T03:52:55.621Z,591.9
2018-07-04T03:53:57.547Z,592.2
2018-07-04T03:54:59.699Z,592.2
2018-07-04T03:56:02.137Z,592.1
2018-07-04T03:57:04.597Z,591.9
2018-07-04T03:58:06.570Z,592.1
2018-07-04T03:59:08.244Z,592.3
2018-07-04T04:00:10.424Z,592.2
2018-07-04T04:01:12.866Z,592.8
2018-07-04T04:02:15.029Z,592.9
2018-07-04T04:03:16.907Z,592.7
2018-07-04T04:04:19.355Z,592.9
2018-07-04T04:05:21.283Z,592.6
2018-07-04T04:06:23.738Z,592.9
2018-07-04T04:07:26.592Z,592.7
2018-07-04T04:08:28.774Z,593.2
2018-07-04T04:09:30.938Z,592.7
2018-07-04T04:10:33.107Z,592.9
2018-07-04T04:11:34.726Z,592.7
2018-07-04T04:12:36.907Z,592.5
2018-07-04T04:13:38.561Z,592.3
2018-07-04T04:14:41.007Z,592.4
2018-07-04T04:15:42.940Z,592.4
2018-07-04T04:16:45.121Z,592.5
2018-07-04T04:17:47.303Z,592.5
2018-07-04T04:18:49.754Z,592.5
2018-07-04T04:19:51.507Z,592.4
2018-07-04T04:20:53.409Z,592.5
2018-07-04T04:21:55.070Z,592.4
2018-07-04T04:22:56.986Z,592.6
2018-07-04T04:23:59.172Z,592.4
2018-07-04T04:25:01.478Z,592.5
2018-07-04T04:26:03.660Z,592.4
2018-07-04T04:27:06.317Z,591.9
2018-07-04T04:28:08.489Z,592
2018-07-04T04:29:10.952Z,592.4
2018-07-04T04:30:13.412Z,592.3
2018-07-04T04:31:15.869Z,591.9
2018-07-04T04:32:18.043Z,592.2
2018-07-04T04:33:20.499Z,591.8
2018-07-04T04:34:22.950Z,592.1
2018-07-04T04:35:25.401Z,592
2018-07-04T04:36:27.995Z,591.9
2018-07-04T04:37:29.914Z,591.9
2018-07-04T04:38:32.370Z,592
2018-07-04T04:39:34.544Z,591.9
2018-07-04T04:40:36.733Z,592.1
2018-07-04T04:41:39.178Z,592.3
2018-07-04T04:42:41.618Z,592
2018-07-04T04:43:44.073Z,592.1
2018-07-04T04:44:46.528Z,592
2018-07-04T04:45:48.966Z,592.6
2018-07-04T04:46:51.427Z,592.4
2018-07-04T04:47:53.871Z,592.4
2018-07-04T04:48:56.317Z,592.5
2018-07-04T04:49:58.499Z,592.4
2018-07-04T04:51:00.969Z,592.1
2018-07-04T04:52:03.422Z,592
2018-07-04T04:53:05.875Z,591.8
2018-07-04T04:54:08.065Z,592.1
2018-07-04T04:55:10.228Z,592.3
2018-07-04T04:56:12.425Z,591.6
2018-07-04T04:57:14.607Z,592.2
2018-07-04T04:58:16.791Z,592.2
2018-07-04T04:59:19.253Z,592.4
2018-07-04T05:00:21.694Z,592.1
2018-07-04T05:01:24.079Z,592.1
2018-07-04T05:02:26.100Z,592.4
2018-07-04T05:03:28.618Z,591.8
2018-07-04T05:04:31.111Z,592.2
2018-07-04T05:05:33.647Z,592.1
2018-07-04T05:06:36.110Z,591.9
2018-07-04T05:07:38.631Z,591.4
2018-07-04T05:08:41.077Z,590.6
2018-07-04T05:09:43.263Z,590.5
2018-07-04T05:10:45.423Z,590.4
2018-07-04T05:11:47.598Z,590.1
2018-07-04T05:12:49.785Z,589.8
2018-07-04T05:13:51.971Z,590
2018-07-04T05:14:54.146Z,590.1
2018-07-04T05:15:56.607Z,589.6
2018-07-04T05:16:58.758Z,589.6
2018-07-04T05:18:00.940Z,589.6
2018-07-04T05:19:03.120Z,589.2
2018-07-04T05:20:05.309Z,589.5
2018-07-04T05:21:07.500Z,589.6
2018-07-04T05:22:09.672Z,589.2
2018-07-04T05:23:11.862Z,589.4
2018-07-04T05:24:13.759Z,589.5
2018-07-04T05:25:16.203Z,589.1
2018-07-04T05:26:18.653Z,589.3
2018-07-04T05:27:21.169Z,589.3
2018-07-04T05:28:23.423Z,589.2
2018-07-04T05:29:25.338Z,589.2
2018-07-04T05:30:27.509Z,589.3
2018-07-04T05:31:29.683Z,589
2018-07-04T05:32:32.129Z,589.2
2018-07-04T05:33:34.570Z,589
2018-07-04T05:34:36.767Z,589
2018-07-04T05:35:39.213Z,588.7
2018-07-04T05:36:41.099Z,589
2018-07-04T05:37:43.714Z,588.8
2018-07-04T05:38:46.147Z,588.5
2018-07-04T05:39:48.355Z,588.8
2018-07-04T05:40:50.678Z,589.2
2018-07-04T05:41:53.123Z,589.2
2018-07-04T05:42:55.276Z,589.3
2018-07-04T05:43:57.477Z,589.3
2018-07-04T05:44:59.400Z,589.6
2018-07-04T05:46:01.625Z,589.4
2018-07-04T05:47:03.502Z,589.8
2018-07-04T05:48:05.673Z,589.6
2018-07-04T05:49:08.119Z,589.2
2018-07-04T05:50:10.360Z,589.5
2018-07-04T05:51:12.531Z,589.6
2018-07-04T05:52:14.431Z,589.5
2018-07-04T05:53:16.619Z,589.5
2018-07-04T05:54:18.793Z,589.4
2018-07-04T05:55:20.969Z,588.9
2018-07-04T05:56:23.414Z,589.5
2018-07-04T05:57:25.911Z,589.2
2018-07-04T05:58:28.485Z,588.9
2018-07-04T05:59:30.638Z,589.1
2018-07-04T06:00:33.080Z,589.3
2018-07-04T06:01:34.957Z,588.9
2018-07-04T06:02:37.204Z,589
2018-07-04T06:03:39.662Z,588.9
2018-07-04T06:04:41.845Z,589
2018-07-04T06:05:44.022Z,588.7
2018-07-04T06:06:46.468Z,588.9
2018-07-04T06:07:48.676Z,588.7
2018-07-04T06:08:51.141Z,589.1
2018-07-04T06:09:53.603Z,589
2018-07-04T06:10:55.760Z,589.3
2018-07-04T06:11:57.948Z,589
2018-07-04T06:12:59.863Z,589.1
2018-07-04T06:14:02.045Z,588.9
2018-07-04T06:15:04.711Z,588.3
2018-07-04T06:16:07.191Z,588.7
2018-07-04T06:17:09.648Z,588.8
2018-07-04T06:18:12.105Z,588.5
2018-07-04T06:19:14.278Z,589
2018-07-04T06:20:16.738Z,588.8
2018-07-04T06:21:19.186Z,589
2018-07-04T06:22:21.357Z,588.6
2018-07-04T06:23:23.257Z,589
2018-07-04T06:24:25.422Z,589
2018-07-04T06:25:27.878Z,588.9
2018-07-04T06:26:30.055Z,588.6
2018-07-04T06:27:32.231Z,588.3
2018-07-04T06:28:34.672Z,588.5
2018-07-04T06:29:37.245Z,588.2
2018-07-04T06:30:39.703Z,588.2
2018-07-04T06:31:42.176Z,588.6
2018-07-04T06:32:44.636Z,588.8
2018-07-04T06:33:46.558Z,588.7
2018-07-04T06:34:48.472Z,588.7
2018-07-04T06:35:50.680Z,588.4
2018-07-04T06:36:53.142Z,588.7
2018-07-04T06:37:55.610Z,588.9
2018-07-04T06:38:57.789Z,588.7
2018-07-04T06:40:00.247Z,588.7
2018-07-04T06:41:02.466Z,589
2018-07-04T06:42:04.640Z,588.9
2018-07-04T06:43:07.105Z,588.9
2018-07-04T06:44:09.554Z,589.1
2018-07-04T06:45:11.724Z,588.7
2018-07-04T06:46:13.915Z,588.6
2018-07-04T06:47:16.355Z,588.9
2018-07-04T06:48:18.552Z,588.8
2018-07-04T06:49:21.001Z,588.9
2018-07-04T06:50:23.449Z,588.6
2018-07-04T06:51:25.903Z,588.3
2018-07-04T06:52:28.131Z,588.4
2018-07-04T06:53:30.642Z,588.3
2018-07-04T06:54:33.815Z,588.5
2018-07-04T06:55:36.041Z,588.2
2018-07-04T06:56:38.261Z,588.3
2018-07-04T06:57:40.733Z,588.2
2018-07-04T06:58:42.908Z,587.9
2018-07-04T06:59:45.145Z,587.7
2018-07-04T07:00:47.309Z,587.9
2018-07-04T07:01:49.273Z,588
2018-07-04T07:02:51.394Z,588.2
2018-07-04T07:03:53.841Z,587.8
2018-07-04T07:04:56.017Z,587.9
2018-07-04T07:05:58.178Z,587.8
2018-07-04T07:07:00.634Z,587.9
2018-07-04T07:08:03.101Z,587.8
2018-07-04T07:09:05.266Z,587.5
2018-07-04T07:10:07.443Z,588
2018-07-04T07:11:09.898Z,587.9
2018-07-04T07:12:11.821Z,587.9
2018-07-04T07:13:14.009Z,587.8
2018-07-04T07:14:16.466Z,587.6
2018-07-04T07:15:18.908Z,587.7
2018-07-04T07:16:21.077Z,588.1
2018-07-04T07:17:23.240Z,587.8
2018-07-04T07:18:25.421Z,588
2018-07-04T07:19:27.620Z,588.2
2018-07-04T07:20:30.063Z,587.9
2018-07-04T07:21:32.521Z,588.2
2018-07-04T07:22:34.973Z,588.3
2018-07-04T07:23:37.430Z,588.2
2018-07-04T07:24:39.888Z,588.3
2018-07-04T07:25:42.351Z,588
2018-07-04T07:26:44.546Z,588.1
2018-07-04T07:27:46.721Z,587.8
2018-07-04T07:28:48.909Z,587.8
2018-07-04T07:29:51.091Z,587.7
2018-07-04T07:30:53.542Z,588.2
2018-07-04T07:31:55.650Z,588.4
2018-07-04T07:32:58.178Z,588.2
2018-07-04T07:34:00.700Z,588.5
2018-07-04T07:35:03.237Z,588.3
2018-07-04T07:36:05.740Z,588
2018-07-04T07:37:07.960Z,588
2018-07-04T07:38:10.432Z,588.2
2018-07-04T07:39:12.882Z,588
2018-07-04T07:40:15.334Z,587.6
2018-07-04T07:41:17.792Z,588
2018-07-04T07:42:19.974Z,588.3
2018-07-04T07:43:21.917Z,587.9
2018-07-04T07:44:24.093Z,587.7
2018-07-04T07:45:26.638Z,587.4
2018-07-04T07:46:28.824Z,587.5
2018-07-04T07:47:31.278Z,587.5
2018-07-04T07:48:33.195Z,587.5
2018-07-04T07:49:35.356Z,587.6
2018-07-04T07:50:37.818Z,587.4
2018-07-04T07:51:40.293Z,587.6
2018-07-04T07:52:42.732Z,587.8
2018-07-04T07:53:45.206Z,587.7
2018-07-04T07:54:47.099Z,587.8
2018-07-04T07:55:49.549Z,587.3
2018-07-04T07:56:51.432Z,588.1
2018-07-04T07:57:53.338Z,587.7
2018-07-04T07:58:55.521Z,587.7
2018-07-04T07:59:57.710Z,587.7
2018-07-04T08:01:00.158Z,587.6
2018-07-04T08:02:02.318Z,587.3
2018-07-04T08:03:04.329Z,587.5
2018-07-04T08:04:06.818Z,587.8
2018-07-04T08:05:09.266Z,587.9
2018-07-04T08:06:11.161Z,587.7
2018-07-04T08:07:13.068Z,587.6
2018-07-04T08:08:15.517Z,587.7
2018-07-04T08:09:17.974Z,587.4
2018-07-04T08:10:20.436Z,587.3
2018-07-04T08:11:22.919Z,587.3
2018-07-04T08:12:24.837Z,587.6
2018-07-04T08:13:27.291Z,587.7
2018-07-04T08:14:29.468Z,587.6
2018-07-04T08:15:31.917Z,587
2018-07-04T08:16:33.838Z,587.5
2018-07-04T08:17:36.289Z,587.6
2018-07-04T08:18:37.948Z,587.4
2018-07-04T08:19:40.132Z,587.6
2018-07-04T08:20:42.583Z,587.4
2018-07-04T08:21:44.259Z,587.5
2018-07-04T08:22:46.720Z,587.4
2018-07-04T08:23:49.181Z,587.5
2018-07-04T08:24:51.357Z,587.6
2018-07-04T08:25:53.818Z,587.4
2018-07-04T08:26:55.992Z,587.8
2018-07-04T08:27:58.481Z,587.6
2018-07-04T08:29:00.372Z,588
2018-07-04T08:30:02.546Z,588.1
2018-07-04T08:31:04.718Z,588.5
2018-07-04T08:32:06.893Z,587.9
2018-07-04T08:33:09.089Z,588.4
2018-07-04T08:34:11.538Z,588.1
2018-07-04T08:35:13.456Z,588.5
2018-07-04T08:36:15.618Z,588.4
2018-07-04T08:37:17.776Z,588.6
2018-07-04T08:38:20.228Z,588.8
2018-07-04T08:39:22.118Z,588.5
2018-07-04T08:40:24.585Z,588.3
2018-07-04T08:41:27.021Z,588.5
2018-07-04T08:42:29.180Z,588.2
2018-07-04T08:43:31.358Z,588.3
2018-07-04T08:44:33.537Z,588
2018-07-04T08:45:35.425Z,588.5
2018-07-04T08:46:37.607Z,588.3
2018-07-04T08:47:40.055Z,588.2
2018-07-04T08:48:42.247Z,588.6
2018-07-04T08:49:44.698Z,589.1
2018-07-04T08:50:47.684Z,589
2018-07-04T08:51:49.942Z,588.9
2018-07-04T08:52:52.872Z,589
2018-07-04T08:53:55.558Z,588.8
2018-07-04T08:54:57.819Z,588.8
2018-07-04T08:56:00.089Z,588.8
2018-07-04T08:57:02.063Z,588.9
2018-07-04T08:58:04.294Z,588.5
2018-07-04T08:59:06.218Z,589.1
2018-07-04T09:00:08.728Z,588.9
2018-07-04T09:01:11.212Z,588.9
2018-07-04T09:02:13.683Z,588.9
2018-07-04T09:03:15.893Z,588.8
2018-07-04T09:04:17.517Z,588.4
2018-07-04T09:05:19.698Z,588.8
2018-07-04T09:06:22.149Z,588.9
2018-07-04T09:07:24.324Z,588.9
2018-07-04T09:08:26.526Z,588.4
2018-07-04T09:09:28.454Z,587.9
2018-07-04T09:10:30.350Z,588.6
2018-07-04T09:11:32.691Z,589.2
2018-07-04T09:12:34.913Z,589.1
2018-07-04T09:13:37.084Z,588.5
2018-07-04T09:14:39.271Z,588.5
2018-07-04T09:15:41.716Z,588.4
2018-07-04T09:16:43.629Z,588.5
2018-07-04T09:17:45.547Z,588.9
2018-07-04T09:18:47.754Z,588.7
2018-07-04T09:19:50.199Z,588.7
2018-07-04T09:20:52.657Z,588.7
2018-07-04T09:21:54.561Z,588.7
2018-07-04T09:22:56.744Z,588.6
2018-07-04T09:23:58.649Z,588.3
2018-07-04T09:25:01.111Z,588.4
2018-07-04T09:26:03.292Z,588.3
2018-07-04T09:27:05.769Z,588.1
2018-07-04T09:28:08.226Z,588.3
2018-07-04T09:29:10.682Z,587.8
2018-07-04T09:30:12.883Z,587.8
2018-07-04T09:31:15.318Z,587.6
2018-07-04T09:32:17.470Z,588
2018-07-04T09:33:19.917Z,587.6
2018-07-04T09:34:22.099Z,587.7
2018-07-04T09:35:24.271Z,587.7
2018-07-04T09:36:26.737Z,587.8
2018-07-04T09:37:29.182Z,587.7
2018-07-04T09:38:32.092Z,587.8
2018-07-04T09:39:34.540Z,588
2018-07-04T09:40:36.723Z,587.2
2018-07-04T09:41:38.905Z,586.9
2018-07-04T09:42:40.806Z,587.1
2018-07-04T09:43:43.273Z,586.7
2018-07-04T09:44:45.445Z,587.4
2018-07-04T09:45:47.904Z,587.5
2018-07-04T09:46:50.081Z,587
2018-07-04T09:47:52.556Z,586.8
2018-07-04T09:48:54.159Z,587
2018-07-04T09:49:56.614Z,587.3
2018-07-04T09:50:59.051Z,587.1
2018-07-04T09:52:01.533Z,586.5
2018-07-04T09:53:03.470Z,586.7
2018-07-04T09:54:05.137Z,586.7
2018-07-04T09:55:06.765Z,586.7
2018-07-04T09:56:08.957Z,586.7
2018-07-04T09:57:11.154Z,586.9
2018-07-04T09:58:13.386Z,586.6
2018-07-04T09:59:15.568Z,586.8
2018-07-04T10:00:17.470Z,586.6
2018-07-04T10:01:19.350Z,586.8
2018-07-04T10:02:21.807Z,587
2018-07-04T10:03:24.274Z,586.8
2018-07-04T10:04:26.147Z,587
2018-07-04T10:05:27.755Z,586.9
2018-07-04T10:06:29.657Z,586.8
2018-07-04T10:07:31.834Z,586.9
2018-07-04T10:08:33.996Z,586.9
2018-07-04T10:09:36.460Z,586.8
2018-07-04T10:10:38.654Z,586.6
2018-07-04T10:11:41.095Z,586.7
2018-07-04T10:12:43.940Z,587
2018-07-04T10:13:46.417Z,586.8
2018-07-04T10:14:48.315Z,586.6
2018-07-04T10:15:50.764Z,586.5
2018-07-04T10:16:52.956Z,586.7
2018-07-04T10:17:55.099Z,586.8
2018-07-04T10:18:57.553Z,586.8
2018-07-04T10:20:00.042Z,586.7
2018-07-04T10:21:02.018Z,586.5
2018-07-04T10:22:04.492Z,586.6
2018-07-04T10:23:06.956Z,586.7
2018-07-04T10:24:08.889Z,586.7
2018-07-04T10:25:11.348Z,586.8
2018-07-04T10:26:13.790Z,586.7
2018-07-04T10:27:15.147Z,586.9
2018-07-04T10:28:17.313Z,587
2018-07-04T10:29:19.216Z,587
2018-07-04T10:30:21.403Z,587
2018-07-04T10:31:23.845Z,587.2
2018-07-04T10:32:26.318Z,586.9
2018-07-04T10:33:28.754Z,586.9
2018-07-04T10:34:31.199Z,587.3
2018-07-04T10:35:32.842Z,587
2018-07-04T10:36:35.021Z,587.2
2018-07-04T10:37:37.515Z,587.1
2018-07-04T10:38:39.822Z,587.3
2018-07-04T10:39:42.010Z,587.7
2018-07-04T10:40:43.946Z,587.3
2018-07-04T10:41:46.109Z,587.4
2018-07-04T10:42:48.570Z,587.3
2018-07-04T10:43:50.758Z,587.9
2018-07-04T10:44:53.272Z,588.2
2018-07-04T10:45:55.797Z,588.2
2018-07-04T10:46:57.973Z,588.1
2018-07-04T10:48:00.418Z,588.2
2018-07-04T10:49:02.614Z,588.3
2018-07-04T10:50:05.063Z,588.5
2018-07-04T10:51:07.296Z,588.3
2018-07-04T10:52:09.752Z,588.6
2018-07-04T10:53:12.219Z,588.8
2018-07-04T10:54:14.384Z,588.6
2018-07-04T10:55:16.551Z,588.6
2018-07-04T10:56:18.989Z,589
2018-07-04T10:57:21.429Z,589.1
2018-07-04T10:58:23.605Z,589.4
2018-07-04T10:59:25.493Z,588.8
2018-07-04T11:00:27.939Z,589.4
2018-07-04T11:01:30.137Z,589.1
2018-07-04T11:02:32.343Z,589.3
2018-07-04T11:03:34.793Z,589.4
2018-07-04T11:04:37.523Z,589.5
2018-07-04T11:05:39.700Z,590
2018-07-04T11:06:41.578Z,590.1
2018-07-04T11:07:43.961Z,590.2
2018-07-04T11:08:46.147Z,590.2
2018-07-04T11:09:48.632Z,590.6
2018-07-04T11:10:50.807Z,590.7
2018-07-04T11:11:52.989Z,590.3
2018-07-04T11:12:55.173Z,590.2
2018-07-04T11:13:57.630Z,590.6
2018-07-04T11:14:59.788Z,590.8
2018-07-04T11:16:02.255Z,590.9
2018-07-04T11:17:05.250Z,591.2
2018-07-04T11:18:07.326Z,591.3
2018-07-04T11:19:09.797Z,591.4
2018-07-04T11:20:11.959Z,591.6
2018-07-04T11:21:13.851Z,591.7
2018-07-04T11:22:16.397Z,592.1
2018-07-04T11:23:18.601Z,592.2
2018-07-04T11:24:20.782Z,592.1
2018-07-04T11:25:22.689Z,592.6
2018-07-04T11:26:25.142Z,592.4
2018-07-04T11:27:27.328Z,592.2
2018-07-04T11:28:29.343Z,592.2
2018-07-04T11:29:31.840Z,592.2
2018-07-04T11:30:34.027Z,592.4
2018-07-04T11:31:36.492Z,592.2
2018-07-04T11:32:38.665Z,591.8
2018-07-04T11:33:40.589Z,592
2018-07-04T11:34:42.779Z,591.8
2018-07-04T11:35:44.655Z,592.2
2018-07-04T11:36:47.111Z,591.8
2018-07-04T11:37:49.282Z,592
2018-07-04T11:38:51.466Z,592.1
2018-07-04T11:39:53.924Z,591.9
2018-07-04T11:40:56.378Z,591.7
2018-07-04T11:41:58.827Z,591.7
2018-07-04T11:43:01.284Z,591.6
2018-07-04T11:44:02.897Z,591.5
2018-07-04T11:45:05.351Z,590.5
2018-07-04T11:46:07.812Z,590.6
2018-07-04T11:47:10.317Z,590.5
2018-07-04T11:48:12.841Z,590.7
2018-07-04T11:49:15.021Z,590.8
2018-07-04T11:50:17.485Z,590.8
2018-07-04T11:51:19.939Z,591.2
2018-07-04T11:52:21.591Z,591.2
2018-07-04T11:53:23.775Z,591
2018-07-04T11:54:26.238Z,591
2018-07-04T11:55:28.701Z,591.1
2018-07-04T11:56:31.402Z,591.2
2018-07-04T11:57:33.860Z,590.9
2018-07-04T11:58:36.318Z,591.1
2018-07-04T11:59:38.758Z,590.9
2018-07-04T12:00:40.379Z,591.2
2018-07-04T12:01:42.962Z,591.3
2018-07-04T12:02:45.215Z,591.4
2018-07-04T12:03:47.668Z,591.1
2018-07-04T12:04:50.118Z,591
2018-07-04T12:05:51.999Z,591.4
2018-07-04T12:06:54.477Z,591.1
2018-07-04T12:07:56.934Z,590.8
2018-07-04T12:08:58.580Z,590.9
2018-07-04T12:10:00.773Z,590.5
2018-07-04T12:11:03.706Z,590.5
2018-07-04T12:12:05.865Z,589.9
2018-07-04T12:13:08.038Z,589.6
2018-07-04T12:14:10.505Z,589.5
2018-07-04T12:15:12.957Z,589.4
2018-07-04T12:16:14.847Z,589.8
2018-07-04T12:17:17.030Z,589.5
2018-07-04T12:18:19.479Z,589.7
2018-07-04T12:19:21.922Z,589.2
2018-07-04T12:20:24.373Z,589.6
2018-07-04T12:21:26.691Z,589.8
2018-07-04T12:22:29.009Z,589.8
2018-07-04T12:23:31.243Z,589.8
2018-07-04T12:24:33.151Z,590.1
2018-07-04T12:25:35.340Z,590
2018-07-04T12:26:37.470Z,590.1
2018-07-04T12:27:39.955Z,590.3
2018-07-04T12:28:41.867Z,590.2
2018-07-04T12:29:44.320Z,590.2
2018-07-04T12:30:46.780Z,590.3
2018-07-04T12:31:49.231Z,590.5
2018-07-04T12:32:51.478Z,590.6
2018-07-04T12:33:53.987Z,590.3
2018-07-04T12:34:55.903Z,590.4
2018-07-04T12:35:57.814Z,590.2
2018-07-04T12:36:59.980Z,590.3
2018-07-04T12:38:02.216Z,590.4
2018-07-04T12:39:04.407Z,590.2
2018-07-04T12:40:06.309Z,590.5
2018-07-04T12:41:08.763Z,590.5
2018-07-04T12:42:11.222Z,590.7
2018-07-04T12:43:13.679Z,590.9
2018-07-04T12:44:15.986Z,590.6
2018-07-04T12:45:18.489Z,590.7
2018-07-04T12:46:20.395Z,590.7
2018-07-04T12:47:23.067Z,590.7
2018-07-04T12:48:25.599Z,590.5
2018-07-04T12:49:27.522Z,590.7
2018-07-04T12:50:29.444Z,590.4
2018-07-04T12:51:31.898Z,590.6
2018-07-04T12:52:34.077Z,590.8
2018-07-04T12:53:36.237Z,590.9
2018-07-04T12:54:39.492Z,590.9
2018-07-04T12:55:41.950Z,591.2
2018-07-04T12:56:43.877Z,591
2018-07-04T12:57:46.082Z,591.1
2018-07-04T12:58:48.522Z,591.6
2018-07-04T12:59:50.425Z,592.4
2018-07-04T13:00:53.136Z,591.8
2018-07-04T13:01:55.607Z,592.5
2018-07-04T13:02:58.303Z,592.1
2018-07-04T13:04:00.758Z,591.8
2018-07-04T13:05:03.233Z,591.2
2018-07-04T13:06:05.681Z,591.4
2018-07-04T13:07:08.128Z,590.4
2018-07-04T13:08:10.596Z,591.6
2018-07-04T13:09:12.754Z,591.2
2018-07-04T13:10:15.214Z,591.5
2018-07-04T13:11:17.391Z,591.7
2018-07-04T13:12:19.844Z,592
2018-07-04T13:13:21.727Z,591.9
2018-07-04T13:14:24.192Z,591.8
2018-07-04T13:15:26.647Z,591.7
2018-07-04T13:16:28.826Z,592.5
2018-07-04T13:17:31.011Z,592.6
2018-07-04T13:18:33.173Z,592.3
2018-07-04T13:19:35.825Z,592.1
2018-07-04T13:20:38.323Z,591.9
2018-07-04T13:21:40.213Z,591.6
2018-07-04T13:22:42.652Z,590.7
2018-07-04T13:23:44.954Z,589.9
2018-07-04T13:24:47.212Z,590.1
2018-07-04T13:25:49.499Z,589.9
2018-07-04T13:26:51.669Z,589.4